Time;durP1;ratioP1;P1;durP2;ratioP2;P2;SDS_P1;SDS_P2;PMS_P1;PMS_P2;Temp;Humidity;BMP_temperature;BMP_pressure;BME280_temperature;BME280_humidity;BME280_pressure;Samples;Min_cycle;Max_cycle;Signal;HPM_P1;HPM_P2
2022/08/07 00:00:27;;;;;;;6.50;5.80;;;12.30;99.90;;;;;;5023119;28;20052;-81
2022/08/07 00:02:55;;;;;;;7.10;6.40;;;12.20;99.90;;;;;;5018167;28;20046;-81
2022/08/07 00:05:25;;;;;;;9.88;7.40;;;12.20;99.90;;;;;;5012988;28;20528;-82
2022/08/07 00:07:52;;;;;;;6.63;5.90;;;12.10;99.90;;;;;;5037730;28;20494;-81
2022/08/07 00:10:18;;;;;;;6.80;6.10;;;12.10;99.90;;;;;;5025743;28;20053;-81
2022/08/07 00:12:43;;;;;;;6.30;5.70;;;12.10;99.90;;;;;;5014497;28;20495;-81
2022/08/07 00:15:10;;;;;;;11.57;8.40;;;12.00;99.90;;;;;;5026259;28;20053;-81
2022/08/07 00:17:36;;;;;;;7.63;5.80;;;12.10;99.90;;;;;;5024301;28;20112;-81
2022/08/07 00:20:04;;;;;;;7.55;6.10;;;12.00;99.90;;;;;;5006415;28;20073;-81
2022/08/07 00:22:30;;;;;;;7.30;6.00;;;12.00;99.90;;;;;;5021636;28;20199;-81
2022/08/07 00:24:55;;;;;;;7.30;5.72;;;12.00;99.90;;;;;;5013768;28;20105;-81
2022/08/07 00:27:21;;;;;;;6.72;6.03;;;12.00;99.90;;;;;;5015075;28;20049;-81
2022/08/07 00:29:51;;;;;;;7.07;6.32;;;11.90;99.90;;;;;;5009062;28;20033;-81
2022/08/07 00:32:17;;;;;;;7.60;5.97;;;11.90;99.90;;;;;;5013300;28;20051;-81
2022/08/07 00:34:47;;;;;;;7.93;6.78;;;11.90;99.90;;;;;;5036067;28;20046;-81
2022/08/07 00:37:16;;;;;;;9.68;7.30;;;11.80;99.90;;;;;;5003651;28;20054;-82
2022/08/07 00:39:42;;;;;;;7.28;6.22;;;11.80;99.90;;;;;;5022826;28;20041;-81
2022/08/07 00:42:08;;;;;;;7.00;6.13;;;11.70;99.90;;;;;;5020907;28;20046;-81
2022/08/07 00:44:34;;;;;;;7.28;6.15;;;11.60;99.90;;;;;;5006183;28;20048;-81
2022/08/07 00:47:01;;;;;;;9.30;6.13;;;11.50;99.90;;;;;;5041013;28;20038;-81
2022/08/07 00:49:27;;;;;;;7.38;6.47;;;11.50;99.90;;;;;;5024735;28;20053;-81
2022/08/07 00:51:56;;;;;;;7.25;6.32;;;11.40;99.90;;;;;;5010612;28;20156;-81
2022/08/07 00:54:25;;;;;;;7.47;6.68;;;11.40;99.90;;;;;;5020644;28;20160;-81
2022/08/07 00:56:51;;;;;;;7.15;5.30;;;11.40;99.90;;;;;;4994951;28;20140;-81
2022/08/07 00:59:17;;;;;;;9.93;6.28;;;11.30;99.90;;;;;;5015900;28;20080;-81
2022/08/07 01:01:44;;;;;;;8.13;6.43;;;11.30;99.90;;;;;;5020487;28;20046;-81
2022/08/07 01:04:09;;;;;;;9.90;6.80;;;11.30;99.90;;;;;;4996762;28;20041;-82
2022/08/07 01:06:35;;;;;;;7.20;6.00;;;11.40;99.90;;;;;;5012047;28;20073;-81
2022/08/07 01:09:02;;;;;;;8.40;6.35;;;11.30;99.90;;;;;;5021248;28;20073;-81
2022/08/07 01:11:29;;;;;;;9.15;6.60;;;11.30;99.90;;;;;;5007726;28;20041;-81
2022/08/07 01:13:55;;;;;;;8.38;6.72;;;11.30;99.90;;;;;;5013625;28;20132;-81
2022/08/07 01:16:21;;;;;;;7.93;7.13;;;11.30;99.90;;;;;;5006754;28;20065;-81
2022/08/07 01:18:47;;;;;;;8.65;6.90;;;11.30;99.90;;;;;;5018897;28;20147;-82
2022/08/07 01:21:19;;;;;;;8.02;6.50;;;11.30;99.90;;;;;;5021097;28;20140;-80
2022/08/07 01:23:46;;;;;;;7.47;5.95;;;11.30;99.90;;;;;;5013660;28;20133;-79
2022/08/07 01:26:15;;;;;;;6.35;5.45;;;11.30;99.90;;;;;;5023130;28;20129;-79
2022/08/07 01:28:46;;;;;;;8.77;6.88;;;11.30;99.90;;;;;;5024461;28;20425;-82
2022/08/07 01:31:13;;;;;;;6.38;5.78;;;11.30;99.90;;;;;;4994935;28;20092;-82
2022/08/07 01:33:39;;;;;;;6.40;5.70;;;11.20;99.90;;;;;;5007262;28;20787;-82
2022/08/07 01:36:08;;;;;;;7.55;6.10;;;11.10;99.90;;;;;;5022963;28;20481;-82
2022/08/07 01:38:34;;;;;;;7.93;6.05;;;11.20;99.90;;;;;;5023174;28;20597;-82
2022/08/07 01:41:02;;;;;;;7.82;6.30;;;11.20;99.90;;;;;;4971810;28;20050;-82
2022/08/07 01:43:30;;;;;;;6.75;5.72;;;11.10;99.90;;;;;;5011929;28;20140;-81
2022/08/07 01:45:56;;;;;;;6.85;5.72;;;11.10;99.90;;;;;;5017729;28;20056;-81
2022/08/07 01:48:23;;;;;;;7.03;5.65;;;11.10;99.90;;;;;;5011010;28;20138;-82
2022/08/07 01:50:57;;;;;;;6.75;5.93;;;11.00;99.90;;;;;;4996455;28;20520;-82
2022/08/07 01:53:25;;;;;;;7.03;5.95;;;11.10;99.90;;;;;;5024184;28;20049;-82
2022/08/07 01:55:57;;;;;;;8.68;6.63;;;11.10;99.90;;;;;;5019249;28;20377;-81
2022/08/07 01:58:29;;;;;;;8.48;6.20;;;11.10;99.90;;;;;;5015439;28;20135;-81
2022/08/07 02:01:08;;;;;;;7.78;6.55;;;11.10;99.90;;;;;;5011467;28;20052;-81
2022/08/07 02:03:36;;;;;;;8.68;6.95;;;11.10;99.90;;;;;;5015562;28;20053;-81
2022/08/07 02:06:06;;;;;;;8.25;6.65;;;11.10;99.90;;;;;;5004619;28;20068;-82
2022/08/07 02:08:39;;;;;;;7.07;6.38;;;11.10;99.90;;;;;;5017004;28;20049;-81
2022/08/07 02:11:07;;;;;;;8.77;6.97;;;11.00;99.90;;;;;;5020823;28;20057;-82
2022/08/07 02:13:35;;;;;;;8.20;6.38;;;11.00;99.90;;;;;;5022377;28;20079;-82
2022/08/07 02:16:03;;;;;;;8.50;6.32;;;11.00;99.90;;;;;;5010638;28;20061;-82
2022/08/07 02:18:32;;;;;;;7.93;6.10;;;11.00;99.90;;;;;;5039520;28;20727;-82
2022/08/07 02:21:03;;;;;;;8.35;6.22;;;11.00;99.90;;;;;;5024076;28;20053;-82
2022/08/07 02:23:32;;;;;;;6.40;5.80;;;11.00;99.90;;;;;;5017763;28;20114;-82
2022/08/07 02:25:59;;;;;;;7.47;6.27;;;11.00;99.90;;;;;;5034322;28;20077;-81
2022/08/07 02:28:28;;;;;;;7.65;5.68;;;11.00;99.90;;;;;;5011479;28;20088;-82
2022/08/07 02:30:55;;;;;;;6.78;6.03;;;11.00;99.90;;;;;;5022545;28;20037;-81
2022/08/07 02:33:25;;;;;;;7.60;6.10;;;10.90;99.90;;;;;;5013863;28;20828;-82
2022/08/07 02:35:56;;;;;;;7.15;6.45;;;10.90;99.90;;;;;;5018630;28;20050;-81
2022/08/07 02:38:26;;;;;;;7.47;5.95;;;10.90;99.90;;;;;;5021397;28;20038;-81
2022/08/07 02:40:54;;;;;;;6.95;5.90;;;10.90;99.90;;;;;;5015487;28;20053;-81
2022/08/07 02:43:21;;;;;;;7.25;5.75;;;10.90;99.90;;;;;;5018638;28;20401;-81
2022/08/07 02:45:50;;;;;;;9.35;5.95;;;10.80;99.90;;;;;;5009721;28;20528;-81
2022/08/07 02:48:16;;;;;;;6.80;5.68;;;10.80;99.90;;;;;;5029503;28;20057;-82
2022/08/07 02:50:49;;;;;;;6.63;5.88;;;10.80;99.90;;;;;;5005206;28;20045;-81
2022/08/07 02:53:24;;;;;;;7.68;5.90;;;10.80;99.90;;;;;;5024552;28;20060;-81
2022/08/07 02:55:54;;;;;;;7.35;6.32;;;10.80;99.90;;;;;;5008371;28;20537;-81
2022/08/07 02:58:21;;;;;;;8.25;6.05;;;10.80;99.90;;;;;;5026333;28;20075;-82
2022/08/07 03:00:53;;;;;;;7.60;6.80;;;10.70;99.90;;;;;;5010836;28;20049;-81
2022/08/07 03:03:24;;;;;;;7.43;6.35;;;10.70;99.90;;;;;;5026782;28;20057;-82
2022/08/07 03:05:55;;;;;;;7.22;6.10;;;10.70;99.90;;;;;;5012771;28;20057;-82
2022/08/07 03:08:21;;;;;;;;;;;10.70;99.90;;;;;;5028513;28;20076;-82
2022/08/07 03:10:48;;;;;;;10.90;8.57;;;10.60;99.90;;;;;;4992785;28;19971;-81
2022/08/07 03:13:15;;;;;;;7.78;6.20;;;10.60;99.90;;;;;;5038694;28;20077;-81
2022/08/07 03:15:42;;;;;;;8.25;7.45;;;10.50;99.90;;;;;;5022627;28;20041;-81
2022/08/07 03:18:09;;;;;;;7.57;6.15;;;10.50;99.90;;;;;;5013059;28;20045;-81
2022/08/07 03:20:35;;;;;;;7.03;6.20;;;10.50;99.90;;;;;;5005167;28;20432;-81
2022/08/07 03:23:02;;;;;;;7.60;6.20;;;10.50;99.90;;;;;;5018853;28;20049;-82
2022/08/07 03:25:30;;;;;;;8.40;6.65;;;10.50;99.90;;;;;;5021278;28;20439;-82
2022/08/07 03:27:58;;;;;;;6.93;6.22;;;10.50;99.90;;;;;;5013685;28;20061;-82
2022/08/07 03:30:28;;;;;;;6.93;6.22;;;10.50;99.90;;;;;;5018820;28;20155;-82
2022/08/07 03:32:55;;;;;;;7.07;6.20;;;10.50;99.90;;;;;;4999001;28;20052;-82
2022/08/07 03:35:28;;;;;;;6.88;5.95;;;10.50;99.90;;;;;;5014385;28;20046;-82
2022/08/07 03:38:01;;;;;;;8.13;6.10;;;10.50;99.90;;;;;;5024464;28;20045;-82
2022/08/07 03:40:30;;;;;;;7.82;6.07;;;10.50;99.90;;;;;;5022353;28;20575;-82
2022/08/07 03:43:01;;;;;;;6.65;5.97;;;10.40;99.90;;;;;;5026234;28;20473;-82
2022/08/07 03:45:28;;;;;;;6.60;5.68;;;10.40;99.90;;;;;;5022021;28;20177;-82
2022/08/07 03:47:55;;;;;;;7.90;6.28;;;10.40;99.90;;;;;;4981684;28;20129;-82
2022/08/07 03:50:23;;;;;;;7.50;6.13;;;10.40;99.90;;;;;;5005595;28;20045;-82
2022/08/07 03:52:51;;;;;;;7.13;5.60;;;10.40;99.90;;;;;;5025478;28;20564;-82
2022/08/07 03:55:17;;;;;;;7.18;5.80;;;10.40;99.90;;;;;;5022888;28;20092;-82
2022/08/07 03:57:44;;;;;;;7.03;5.70;;;10.30;99.90;;;;;;5019904;28;20286;-82
2022/08/07 04:00:11;;;;;;;6.70;6.00;;;10.30;99.90;;;;;;5021673;28;20128;-82
2022/08/07 04:02:37;;;;;;;7.18;5.93;;;10.30;99.90;;;;;;5001220;28;20496;-82
2022/08/07 04:05:04;;;;;;;8.68;6.95;;;10.30;99.90;;;;;;4989283;28;20092;-82
2022/08/07 04:07:31;;;;;;;9.32;8.25;;;10.30;99.90;;;;;;5022351;28;20041;-82
2022/08/07 04:09:58;;;;;;;10.70;8.02;;;10.30;99.90;;;;;;5007181;28;20049;-82
2022/08/07 04:12:24;;;;;;;8.57;7.03;;;10.30;99.90;;;;;;5024034;28;20137;-82
2022/08/07 04:14:51;;;;;;;8.52;7.55;;;10.30;99.90;;;;;;5004174;28;20057;-82
2022/08/07 04:17:17;;;;;;;9.40;8.48;;;10.30;99.90;;;;;;5019788;28;20509;-82
2022/08/07 04:19:43;;;;;;;9.40;8.38;;;10.30;99.90;;;;;;5006940;28;20112;-81
2022/08/07 04:22:09;;;;;;;8.77;7.88;;;10.30;99.90;;;;;;4992382;28;20381;-82
2022/08/07 04:24:36;;;;;;;7.95;7.13;;;10.30;99.90;;;;;;5015285;28;20049;-82
2022/08/07 04:27:03;;;;;;;8.50;7.60;;;10.30;99.90;;;;;;5023533;28;20497;-81
2022/08/07 04:29:29;;;;;;;9.27;8.35;;;10.30;99.90;;;;;;5022924;28;20053;-81
2022/08/07 04:31:56;;;;;;;8.65;7.47;;;10.30;99.90;;;;;;5025665;28;20072;-82
2022/08/07 04:34:25;;;;;;;9.82;8.07;;;10.30;99.90;;;;;;5016324;28;20094;-82
2022/08/07 04:36:51;;;;;;;10.40;7.95;;;10.30;99.90;;;;;;5008030;28;20054;-82
2022/08/07 04:39:17;;;;;;;11.23;9.90;;;10.30;99.90;;;;;;5016754;28;20136;-82
2022/08/07 04:41:43;;;;;;;10.43;9.32;;;10.30;99.90;;;;;;5023065;28;20053;-81
2022/08/07 04:44:08;;;;;;;11.18;8.93;;;10.30;99.90;;;;;;5020444;28;20064;-81
2022/08/07 04:46:46;;;;;;;10.82;9.73;;;10.30;99.90;;;;;;5017168;28;20034;-82
2022/08/07 04:49:29;;;;;;;12.57;11.27;;;10.40;99.90;;;;;;5013701;28;20107;-81
2022/08/07 04:52:00;;;;;;;13.15;11.85;;;10.40;99.90;;;;;;5010624;28;20041;-81
2022/08/07 04:54:42;;;;;;;12.30;10.80;;;10.40;99.90;;;;;;5003909;28;20115;-81
2022/08/07 04:57:11;;;;;;;12.15;10.88;;;10.40;99.90;;;;;;5019220;28;20072;-81
2022/08/07 04:59:57;;;;;;;12.00;10.80;;;10.50;99.90;;;;;;5022616;28;20049;-81
2022/08/07 05:02:53;;;;;;;11.80;10.70;;;10.50;99.90;;;;;;5020251;28;20050;-82
2022/08/07 05:05:29;;;;;;;12.65;11.32;;;10.60;99.90;;;;;;5012715;28;20063;-82
2022/08/07 05:08:11;;;;;;;12.82;10.85;;;10.60;99.90;;;;;;5023436;28;20033;-81
2022/08/07 05:11:18;;;;;;;13.52;12.13;;;10.60;99.90;;;;;;5016213;28;20042;-82
2022/08/07 05:14:07;;;;;;;12.45;11.25;;;10.70;99.90;;;;;;5007065;28;20092;-81
2022/08/07 05:16:34;;;;;;;13.85;12.40;;;10.70;99.90;;;;;;5016243;28;20272;-82
2022/08/07 05:19:06;;;;;;;14.23;12.73;;;10.70;99.90;;;;;;5021993;28;20136;-82
2022/08/07 05:21:34;;;;;;;12.88;11.57;;;10.80;99.90;;;;;;5000497;28;20495;-82
2022/08/07 05:24:08;;;;;;;14.05;12.43;;;10.80;99.90;;;;;;5019720;28;20048;-82
2022/08/07 05:26:36;;;;;;;12.73;11.43;;;10.80;99.90;;;;;;5021444;28;20132;-81
2022/08/07 05:29:05;;;;;;;13.95;12.38;;;10.90;99.90;;;;;;5004852;28;20455;-82
2022/08/07 05:31:33;;;;;;;12.32;11.05;;;11.00;99.90;;;;;;5023125;28;20046;-82
2022/08/07 05:34:04;;;;;;;13.27;11.98;;;11.00;99.90;;;;;;5016425;28;20987;-82
2022/08/07 05:36:32;;;;;;;13.52;12.13;;;11.10;99.90;;;;;;5008119;28;20372;-82
2022/08/07 05:38:59;;;;;;;13.00;11.70;;;11.20;99.90;;;;;;5021817;28;20048;-82
2022/08/07 05:41:25;;;;;;;13.38;12.05;;;11.30;99.90;;;;;;5013400;28;20077;-82
2022/08/07 05:43:54;;;;;;;13.07;11.68;;;11.30;99.90;;;;;;5015355;28;20033;-82
2022/08/07 05:46:20;;;;;;;13.88;12.52;;;11.30;99.90;;;;;;5019263;28;20107;-82
2022/08/07 05:48:52;;;;;;;13.13;11.75;;;11.40;99.90;;;;;;4993758;28;20042;-82
2022/08/07 05:51:19;;;;;;;14.20;12.23;;;11.40;99.90;;;;;;5017822;28;20038;-81
2022/08/07 05:53:46;;;;;;;15.93;13.18;;;11.50;99.90;;;;;;4995606;28;20587;-81
2022/08/07 05:56:14;;;;;;;14.57;12.30;;;11.60;99.90;;;;;;4999490;28;20132;-81
2022/08/07 05:58:45;;;;;;;14.73;12.35;;;11.70;99.90;;;;;;5030157;28;20070;-82
2022/08/07 06:01:13;;;;;;;13.65;12.25;;;11.80;99.90;;;;;;5016315;28;20409;-81
2022/08/07 06:03:43;;;;;;;14.25;12.32;;;11.90;99.90;;;;;;5010398;28;20513;-81
2022/08/07 06:06:10;;;;;;;15.85;14.25;;;12.00;99.90;;;;;;5008591;28;20088;-81
2022/08/07 06:08:39;;;;;;;16.90;15.10;;;12.10;99.90;;;;;;4987491;28;20033;-81
2022/08/07 06:11:06;;;;;;;15.32;13.73;;;12.20;99.90;;;;;;5010345;28;20143;-78
2022/08/07 06:13:32;;;;;;;18.67;16.67;;;12.30;99.90;;;;;;5004825;28;20049;-78
2022/08/07 06:16:00;;;;;;;17.38;15.68;;;12.40;99.90;;;;;;5003468;28;20060;-81
2022/08/07 06:18:26;;;;;;;16.92;15.02;;;12.50;99.90;;;;;;4988821;28;20402;-81
2022/08/07 06:20:55;;;;;;;17.20;15.50;;;12.60;99.90;;;;;;4999721;28;20139;-81
2022/08/07 06:23:21;;;;;;;17.63;15.73;;;12.80;99.90;;;;;;4993530;28;20038;-81
2022/08/07 06:25:47;;;;;;;20.23;16.50;;;12.90;99.90;;;;;;4999539;28;20046;-81
2022/08/07 06:28:13;;;;;;;18.27;16.52;;;13.00;99.90;;;;;;5003280;28;20069;-81
2022/08/07 06:30:39;;;;;;;17.40;15.68;;;13.10;99.90;;;;;;5015596;28;20045;-81
2022/08/07 06:33:06;;;;;;;18.13;16.17;;;13.30;99.90;;;;;;5000382;28;20042;-81
2022/08/07 06:35:34;;;;;;;18.50;16.55;;;13.40;99.90;;;;;;4996641;28;20077;-81
2022/08/07 06:38:00;;;;;;;18.98;16.42;;;13.50;99.90;;;;;;5017604;28;20570;-80
2022/08/07 06:40:28;;;;;;;17.63;15.80;;;13.70;99.90;;;;;;4995687;28;20073;-80
2022/08/07 06:42:56;;;;;;;19.48;15.25;;;13.80;99.90;;;;;;5015281;28;20068;-80
2022/08/07 06:45:23;;;;;;;17.95;16.08;;;13.90;99.90;;;;;;5010131;28;20461;-81
2022/08/07 06:47:49;;;;;;;17.58;15.70;;;14.00;99.90;;;;;;5027125;28;20131;-81
2022/08/07 06:50:18;;;;;;;17.83;14.63;;;14.20;99.90;;;;;;5003160;28;20341;-81
2022/08/07 06:52:49;;;;;;;16.05;14.35;;;14.40;99.90;;;;;;4983828;28;20357;-81
2022/08/07 06:55:29;;;;;;;16.38;14.75;;;14.50;99.90;;;;;;5014186;28;20454;-81
2022/08/07 06:57:59;;;;;;;15.32;13.73;;;14.70;99.90;;;;;;5009857;28;20057;-81
2022/08/07 07:00:29;;;;;;;17.67;13.95;;;14.80;99.90;;;;;;5027706;28;20147;-82
2022/08/07 07:02:55;;;;;;;16.45;13.50;;;15.00;99.90;;;;;;5018552;28;20400;-81
2022/08/07 07:05:21;;;;;;;15.55;12.60;;;15.10;99.90;;;;;;5012884;28;20045;-81
2022/08/07 07:07:47;;;;;;;13.85;11.43;;;15.20;99.90;;;;;;5022538;28;20034;-81
2022/08/07 07:10:14;;;;;;;12.52;10.82;;;15.30;99.90;;;;;;5014205;28;20095;-81
2022/08/07 07:12:51;;;;;;;12.15;10.80;;;15.40;99.90;;;;;;5016652;28;20046;-81
2022/08/07 07:15:22;;;;;;;9.38;8.23;;;15.60;99.90;;;;;;5012396;28;20107;-81
2022/08/07 07:18:03;;;;;;;9.45;7.30;;;15.70;99.90;;;;;;5004446;28;20057;-81
2022/08/07 07:20:34;;;;;;;11.48;8.10;;;15.90;99.90;;;;;;5023635;28;20401;-81
2022/08/07 07:23:01;;;;;;;7.70;6.90;;;16.00;99.90;;;;;;5018600;28;20057;-80
2022/08/07 07:25:27;;;;;;;6.63;4.22;;;16.10;99.90;;;;;;5000716;28;20053;-80
2022/08/07 07:28:11;;;;;;;5.65;4.47;;;16.30;99.90;;;;;;5019399;28;20137;-80
2022/08/07 07:30:41;;;;;;;4.80;3.50;;;16.40;99.90;;;;;;5004423;28;20195;-81
2022/08/07 07:33:13;;;;;;;4.82;3.67;;;16.50;99.90;;;;;;5012224;28;20117;-80
2022/08/07 07:35:45;;;;;;;5.28;3.97;;;16.60;99.90;;;;;;4996852;28;20104;-81
2022/08/07 07:38:13;;;;;;;4.88;3.78;;;16.80;99.90;;;;;;5010469;28;20057;-80
2022/08/07 07:40:41;;;;;;;7.63;3.90;;;16.90;99.90;;;;;;5012107;28;20060;-84
2022/08/07 07:43:08;;;;;;;5.40;3.70;;;17.10;99.90;;;;;;5002987;28;20099;-81
2022/08/07 07:45:36;;;;;;;6.07;4.47;;;17.20;99.90;;;;;;4994421;28;20062;-80
2022/08/07 07:48:03;;;;;;;5.88;4.82;;;17.40;99.90;;;;;;5017104;28;20056;-80
2022/08/07 07:50:30;;;;;;;6.13;4.32;;;17.60;99.90;;;;;;5001289;28;20519;-80
2022/08/07 07:52:57;;;;;;;6.03;4.05;;;17.80;99.90;;;;;;5019907;28;20075;-81
2022/08/07 07:55:26;;;;;;;4.65;2.95;;;17.90;99.90;;;;;;5028919;28;20046;-80
2022/08/07 07:57:55;;;;;;;4.10;2.83;;;18.00;99.90;;;;;;5012236;28;20070;-80
2022/08/07 08:00:23;;;;;;;5.60;4.10;;;18.20;99.90;;;;;;5014263;28;20437;-80
2022/08/07 08:02:55;;;;;;;7.78;4.32;;;18.30;99.90;;;;;;5009800;28;20121;-80
2022/08/07 08:05:26;;;;;;;4.72;3.20;;;18.40;99.90;;;;;;4990640;28;20076;-80
2022/08/07 08:07:52;;;;;;;5.40;3.60;;;18.50;99.90;;;;;;5014775;28;20038;-80
2022/08/07 08:10:19;;;;;;;5.20;3.88;;;18.60;99.90;;;;;;4979636;28;20056;-80
2022/08/07 08:12:46;;;;;;;6.07;3.78;;;18.70;99.90;;;;;;5014407;28;20042;-80
2022/08/07 08:15:12;;;;;;;4.30;3.10;;;18.90;99.90;;;;;;4991318;28;20057;-81
2022/08/07 08:17:40;;;;;;;4.85;2.60;;;19.00;99.90;;;;;;5024843;28;20090;-80
2022/08/07 08:20:10;;;;;;;4.00;2.53;;;19.10;99.90;;;;;;5003850;28;20425;-80
2022/08/07 08:28:19;;;;;;;3.75;2.60;;;19.50;99.90;;;;;;5017139;28;20046;-80
2022/08/07 08:30:45;;;;;;;4.68;2.50;;;19.60;99.90;;;;;;5015479;28;20084;-80
2022/08/07 08:33:17;;;;;;;4.05;2.90;;;19.60;99.90;;;;;;4979946;28;20078;-80
2022/08/07 08:35:47;;;;;;;3.30;2.40;;;19.70;99.90;;;;;;5011971;28;20046;-80
2022/08/07 08:38:17;;;;;;;3.15;2.42;;;19.80;99.90;;;;;;5013994;28;20543;-80
2022/08/07 08:40:55;;;;;;;4.05;2.45;;;19.90;99.90;;;;;;5010558;28;20608;-80
2022/08/07 08:43:32;;;;;;;5.07;2.65;;;20.00;99.90;;;;;;5010214;28;20101;-80
2022/08/07 08:46:10;;;;;;;3.67;2.80;;;20.20;99.90;;;;;;5007052;28;20053;-80
2022/08/07 08:48:43;;;;;;;4.50;2.75;;;20.30;99.90;;;;;;5011188;28;20038;-80
2022/08/07 08:51:17;;;;;;;7.85;2.65;;;20.50;99.90;;;;;;5011413;28;20520;-80
2022/08/07 08:53:58;;;;;;;3.63;2.50;;;20.50;98.10;;;;;;4999936;28;20077;-80
2022/08/07 08:56:37;;;;;;;4.85;3.35;;;20.60;98.30;;;;;;5016337;28;20159;-79
2022/08/07 08:59:24;;;;;;;5.80;2.92;;;20.70;99.50;;;;;;4999095;28;20497;-80
2022/08/07 09:02:24;;;;;;;4.50;3.05;;;20.90;99.80;;;;;;5011365;28;20057;-80
2022/08/07 09:04:53;;;;;;;;;;;21.00;97.70;;;;;;5019005;28;20594;-79
2022/08/07 09:07:30;;;;;;;4.22;2.67;;;21.00;96.40;;;;;;4994722;28;19924;-79
2022/08/07 09:10:17;;;;;;;4.72;2.67;;;21.00;96.30;;;;;;5026547;28;20401;-79
2022/08/07 09:13:05;;;;;;;3.30;2.20;;;21.10;94.50;;;;;;5007265;28;20041;-79
2022/08/07 09:15:31;;;;;;;4.97;2.15;;;21.20;94.20;;;;;;4999842;28;20045;-78
2022/08/07 09:18:06;;;;;;;4.60;2.58;;;21.30;94.60;;;;;;5012485;28;20132;-80
2022/08/07 09:20:49;;;;;;;2.95;1.80;;;21.40;94.50;;;;;;5002689;28;20037;-79
2022/08/07 09:23:30;;;;;;;2.72;1.60;;;21.40;93.70;;;;;;5017731;28;20440;-80
2022/08/07 09:26:07;;;;;;;4.15;2.35;;;21.60;92.40;;;;;;5013375;28;20112;-79
2022/08/07 09:28:43;;;;;;;4.07;1.95;;;21.60;95.40;;;;;;5019246;28;20090;-79
2022/08/07 09:31:25;;;;;;;3.30;1.98;;;21.60;94.90;;;;;;5016852;28;20065;-79
2022/08/07 09:34:24;;;;;;;4.15;2.40;;;21.70;94.60;;;;;;5011780;28;20078;-81
2022/08/07 09:36:56;;;;;;;3.45;1.90;;;21.80;93.00;;;;;;5009285;28;20109;-79
2022/08/07 09:39:45;;;;;;;4.53;2.30;;;21.60;92.10;;;;;;4994707;28;20441;-79
2022/08/07 09:42:29;;;;;;;3.08;1.80;;;21.40;93.60;;;;;;5012285;28;20115;-79
2022/08/07 09:45:21;;;;;;;3.05;1.80;;;21.50;93.20;;;;;;5009920;28;20088;-79
2022/08/07 09:48:06;;;;;;;5.43;2.30;;;21.60;92.30;;;;;;4978294;28;20060;-79
2022/08/07 09:50:53;;;;;;;4.85;2.30;;;21.60;92.40;;;;;;5004848;28;20045;-79
2022/08/07 09:53:22;;;;;;;5.00;2.10;;;21.50;91.30;;;;;;5016056;28;20054;-78
2022/08/07 09:55:47;;;;;;;5.35;2.17;;;21.30;92.20;;;;;;4994298;28;20399;-79
2022/08/07 09:58:42;;;;;;;4.07;2.20;;;21.30;92.40;;;;;;4997148;28;20060;-79
2022/08/07 10:01:44;;;;;;;3.60;1.65;;;21.50;88.80;;;;;;5018532;28;20060;-79
2022/08/07 10:04:27;;;;;;;3.35;1.83;;;21.60;83.50;;;;;;5012186;28;20049;-77
2022/08/07 10:07:20;;;;;;;3.08;1.80;;;21.80;78.80;;;;;;5017827;28;20048;-78
2022/08/07 10:10:41;;;;;;;3.90;2.00;;;21.90;78.30;;;;;;5027478;28;20488;-79
2022/08/07 10:13:21;;;;;;;3.22;1.60;;;22.10;74.00;;;;;;4964965;28;20058;-79
2022/08/07 10:15:47;;;;;;;;;;;22.20;73.00;;;;;;5018198;28;20041;-78
2022/08/07 10:18:21;;;;;;;3.22;1.70;;;22.40;74.00;;;;;;5008725;28;19948;-79
2022/08/07 10:21:18;;;;;;;2.22;1.63;;;22.50;71.60;;;;;;5015680;28;20511;-78
2022/08/07 10:24:18;;;;;;;3.65;1.83;;;22.60;71.50;;;;;;5009971;28;20087;-79
2022/08/07 10:26:44;;;;;;;2.78;1.83;;;22.70;75.10;;;;;;5025824;28;20093;-79
2022/08/07 10:29:36;;;;;;;4.20;1.77;;;22.80;70.20;;;;;;4995221;28;20136;-79
2022/08/07 10:32:23;;;;;;;4.70;1.77;;;22.80;69.50;;;;;;5013104;28;20440;-78
2022/08/07 10:35:10;;;;;;;2.65;1.80;;;22.80;70.40;;;;;;5001145;28;20053;-78
2022/08/07 10:38:01;;;;;;;4.40;2.03;;;23.10;74.20;;;;;;5018153;28;20045;-78
2022/08/07 10:40:35;;;;;;;3.72;1.67;;;23.30;73.50;;;;;;4993530;28;20232;-78
2022/08/07 10:43:11;;;;;;;2.58;1.80;;;23.40;72.60;;;;;;5017339;28;20700;-78
2022/08/07 10:45:41;;;;;;;2.53;1.73;;;23.40;71.20;;;;;;5017645;28;20055;-78
2022/08/07 10:48:38;;;;;;;3.97;1.75;;;23.40;70.50;;;;;;5009621;28;20057;-78
2022/08/07 10:51:19;;;;;;;3.22;1.58;;;23.40;63.30;;;;;;5011260;28;20042;-79
2022/08/07 10:54:05;;;;;;;2.72;1.60;;;23.30;65.80;;;;;;5022042;28;20553;-80
2022/08/07 10:57:08;;;;;;;2.95;1.92;;;23.30;65.30;;;;;;5020430;28;20121;-79
2022/08/07 10:59:46;;;;;;;3.25;1.83;;;23.50;68.00;;;;;;5012505;28;20049;-77
2022/08/07 11:02:40;;;;;;;2.75;1.65;;;23.60;72.50;;;;;;4999616;28;20500;-78
2022/08/07 11:05:34;;;;;;;3.30;1.60;;;23.80;72.40;;;;;;5016182;28;20451;-78
2022/08/07 11:08:25;;;;;;;3.55;1.75;;;23.90;67.50;;;;;;5016992;28;20380;-78
2022/08/07 11:11:04;;;;;;;3.28;1.80;;;24.00;66.70;;;;;;5013678;28;20508;-78
2022/08/07 11:14:04;;;;;;;3.33;2.00;;;24.00;67.00;;;;;;5017356;28;20041;-78
2022/08/07 11:16:36;;;;;;;;;;;24.10;65.50;;;;;;5018829;28;20558;-77
2022/08/07 11:19:27;;;;;;;4.13;2.00;;;24.20;67.10;;;;;;5011917;28;19928;-77
2022/08/07 11:22:02;;;;;;;3.08;1.63;;;24.20;63.60;;;;;;5012628;28;20041;-78
2022/08/07 11:24:50;;;;;;;3.13;1.80;;;24.20;62.30;;;;;;5009205;28;20175;-77
2022/08/07 11:27:37;;;;;;;2.17;1.60;;;24.20;61.60;;;;;;5013676;28;20081;-77
2022/08/07 11:30:05;;;;;;;3.00;1.58;;;24.20;64.30;;;;;;5039124;28;20053;-77
2022/08/07 11:32:46;;;;;;;3.33;1.67;;;24.40;64.90;;;;;;5006430;28;20042;-77
2022/08/07 11:35:20;;;;;;;2.03;1.50;;;24.40;61.20;;;;;;5029232;28;20131;-76
2022/08/07 11:37:55;;;;;;;2.10;1.55;;;24.40;61.10;;;;;;5009076;28;20064;-79
2022/08/07 11:40:37;;;;;;;3.53;1.80;;;24.40;62.40;;;;;;5010790;28;20497;-77
2022/08/07 11:43:13;;;;;;;2.25;1.65;;;24.50;58.50;;;;;;5011988;28;20132;-79
2022/08/07 11:45:59;;;;;;;3.45;1.73;;;24.40;58.80;;;;;;5017625;28;20125;-77
2022/08/07 11:48:49;;;;;;;2.50;1.80;;;24.40;57.40;;;;;;5018512;28;20052;-77
2022/08/07 11:51:37;;;;;;;2.55;1.80;;;24.40;57.90;;;;;;5017223;28;20448;-77
2022/08/07 11:54:36;;;;;;;3.00;1.95;;;24.40;57.90;;;;;;5006375;28;20137;-76
2022/08/07 11:57:27;;;;;;;3.22;1.90;;;24.50;58.00;;;;;;5002420;28;20636;-76
2022/08/07 12:00:15;;;;;;;3.90;2.03;;;24.60;59.10;;;;;;5015548;28;20037;-77
2022/08/07 12:03:04;;;;;;;2.42;1.52;;;24.70;60.60;;;;;;5016089;28;20172;-77
2022/08/07 12:05:45;;;;;;;3.15;1.83;;;24.70;57.00;;;;;;5017262;28;20054;-77
2022/08/07 12:08:19;;;;;;;2.65;1.92;;;24.80;58.90;;;;;;5008825;28;20563;-76
2022/08/07 12:11:02;;;;;;;3.25;1.95;;;24.90;59.40;;;;;;5011364;28;20401;-76
2022/08/07 12:13:45;;;;;;;3.15;1.80;;;25.10;58.40;;;;;;5007921;28;20412;-76
2022/08/07 12:16:20;;;;;;;2.65;1.55;;;25.10;59.40;;;;;;5015327;28;20404;-77
2022/08/07 12:19:09;;;;;;;3.80;1.50;;;25.10;59.40;;;;;;5010128;28;20298;-77
2022/08/07 12:21:54;;;;;;;3.22;1.98;;;25.10;59.00;;;;;;5006741;28;20530;-77
2022/08/07 12:24:38;;;;;;;2.50;1.83;;;25.10;61.50;;;;;;5009869;28;20049;-77
2022/08/07 12:27:17;;;;;;;3.58;1.67;;;25.00;61.00;;;;;;5007344;28;20052;-77
2022/08/07 12:30:00;;;;;;;2.75;1.70;;;25.10;59.70;;;;;;5014335;28;20050;-77
2022/08/07 12:32:42;;;;;;;2.22;1.63;;;25.20;59.80;;;;;;5012909;28;20488;-78
2022/08/07 12:35:11;;;;;;;2.38;1.80;;;25.30;57.00;;;;;;5012513;28;20401;-76
2022/08/07 12:37:39;;;;;;;2.55;1.60;;;25.30;58.80;;;;;;5003351;28;20532;-76
2022/08/07 12:40:06;;;;;;;3.13;1.70;;;25.30;60.60;;;;;;4995993;28;20149;-76
2022/08/07 12:42:33;;;;;;;3.28;1.70;;;25.40;60.40;;;;;;4995429;28;20477;-76
2022/08/07 12:45:13;;;;;;;2.90;1.75;;;25.50;56.90;;;;;;5011150;28;20175;-76
2022/08/07 12:47:41;;;;;;;4.15;1.80;;;25.40;54.00;;;;;;5011627;28;20058;-76
2022/08/07 12:50:45;;;;;;;2.67;1.63;;;25.20;53.10;;;;;;5013816;28;20405;-76
2022/08/07 12:53:20;;;;;;;2.17;1.50;;;25.00;53.90;;;;;;5007506;28;20496;-76
2022/08/07 12:55:57;;;;;;;4.03;1.60;;;24.90;55.00;;;;;;5009430;28;20050;-75
2022/08/07 12:58:38;;;;;;;3.03;1.80;;;24.90;57.30;;;;;;5014206;28;20532;-76
2022/08/07 13:01:48;;;;;;;3.55;1.90;;;24.90;56.50;;;;;;5003692;28;20405;-76
2022/08/07 13:04:52;;;;;;;2.70;1.80;;;24.90;57.00;;;;;;5022503;28;20511;-75
2022/08/07 13:07:55;;;;;;;1.90;1.38;;;24.90;58.60;;;;;;5003824;28;20053;-78
2022/08/07 13:11:01;;;;;;;2.17;1.30;;;25.00;54.40;;;;;;5007513;28;20324;-75
2022/08/07 13:13:42;;;;;;;2.65;1.48;;;25.10;55.50;;;;;;5013147;28;20046;-77
2022/08/07 13:16:30;;;;;;;2.28;1.38;;;25.10;54.50;;;;;;5016477;28;20743;-76
2022/08/07 13:19:27;;;;;;;3.10;1.80;;;25.10;56.30;;;;;;5013520;28;20559;-77
2022/08/07 13:22:13;;;;;;;2.50;1.50;;;25.20;56.10;;;;;;5005660;28;20057;-76